sensor_id;sensor_type;location;lat;lon;timestamp;P1;durP1;ratioP1;P2;durP2;ratioP2
10894;SDS011;5500;49.886;8.074;2022-07-03T00:00:39;3.23;;;1.90;;
10894;SDS011;5500;49.886;8.074;2022-07-03T00:03:07;4.07;;;1.37;;
10894;SDS011;5500;49.886;8.074;2022-07-03T00:05:35;3.13;;;1.50;;
10894;SDS011;5500;49.886;8.074;2022-07-03T00:08:04;2.00;;;1.80;;
10894;SDS011;5500;49.886;8.074;2022-07-03T00:10:34;4.07;;;1.97;;
10894;SDS011;5500;49.886;8.074;2022-07-03T00:13:02;3.17;;;2.37;;
10894;SDS011;5500;49.886;8.074;2022-07-03T00:15:30;3.50;;;2.97;;
10894;SDS011;5500;49.886;8.074;2022-07-03T00:17:58;3.30;;;3.00;;
10894;SDS011;5500;49.886;8.074;2022-07-03T00:20:26;4.23;;;3.30;;
10894;SDS011;5500;49.886;8.074;2022-07-03T00:22:59;7.53;;;3.40;;
10894;SDS011;5500;49.886;8.074;2022-07-03T00:25:30;7.30;;;4.23;;
10894;SDS011;5500;49.886;8.074;2022-07-03T00:28:01;4.73;;;3.70;;
10894;SDS011;5500;49.886;8.074;2022-07-03T00:30:29;7.13;;;4.53;;
10894;SDS011;5500;49.886;8.074;2022-07-03T00:32:57;5.47;;;4.43;;
10894;SDS011;5500;49.886;8.074;2022-07-03T00:35:26;4.67;;;4.27;;
10894;SDS011;5500;49.886;8.074;2022-07-03T00:37:54;6.37;;;4.13;;
10894;SDS011;5500;49.886;8.074;2022-07-03T00:40:22;5.23;;;4.40;;
10894;SDS011;5500;49.886;8.074;2022-07-03T00:42:50;8.33;;;4.63;;
10894;SDS011;5500;49.886;8.074;2022-07-03T00:45:20;5.70;;;4.40;;
10894;SDS011;5500;49.886;8.074;2022-07-03T00:47:48;8.43;;;5.40;;
10894;SDS011;5500;49.886;8.074;2022-07-03T00:50:16;7.90;;;5.53;;
10894;SDS011;5500;49.886;8.074;2022-07-03T00:52:45;8.73;;;5.23;;
10894;SDS011;5500;49.886;8.074;2022-07-03T00:55:15;8.57;;;5.47;;
10894;SDS011;5500;49.886;8.074;2022-07-03T00:57:45;5.27;;;4.77;;
10894;SDS011;5500;49.886;8.074;2022-07-03T01:00:14;5.43;;;4.53;;
10894;SDS011;5500;49.886;8.074;2022-07-03T01:02:49;3.90;;;3.10;;
10894;SDS011;5500;49.886;8.074;2022-07-03T01:05:25;5.50;;;2.60;;
10894;SDS011;5500;49.886;8.074;2022-07-03T01:07:57;2.57;;;2.17;;
10894;SDS011;5500;49.886;8.074;2022-07-03T01:10:35;4.23;;;2.00;;
10894;SDS011;5500;49.886;8.074;2022-07-03T01:13:06;1.70;;;1.60;;
10894;SDS011;5500;49.886;8.074;2022-07-03T01:15:37;2.07;;;1.60;;
10894;SDS011;5500;49.886;8.074;2022-07-03T01:18:25;3.00;;;1.50;;
10894;SDS011;5500;49.886;8.074;2022-07-03T01:20:59;3.33;;;1.67;;
10894;SDS011;5500;49.886;8.074;2022-07-03T01:23:35;3.17;;;1.40;;
10894;SDS011;5500;49.886;8.074;2022-07-03T01:26:14;1.93;;;1.40;;
10894;SDS011;5500;49.886;8.074;2022-07-03T01:28:44;4.00;;;1.93;;
10894;SDS011;5500;49.886;8.074;2022-07-03T01:31:13;2.80;;;1.90;;
10894;SDS011;5500;49.886;8.074;2022-07-03T01:33:45;2.33;;;1.57;;
10894;SDS011;5500;49.886;8.074;2022-07-03T01:36:15;4.77;;;1.50;;
10894;SDS011;5500;49.886;8.074;2022-07-03T01:38:43;2.93;;;1.53;;
10894;SDS011;5500;49.886;8.074;2022-07-03T01:41:14;3.10;;;1.77;;
10894;SDS011;5500;49.886;8.074;2022-07-03T01:43:44;3.60;;;2.40;;
10894;SDS011;5500;49.886;8.074;2022-07-03T01:46:15;2.13;;;1.83;;
10894;SDS011;5500;49.886;8.074;2022-07-03T01:48:44;2.87;;;2.00;;
10894;SDS011;5500;49.886;8.074;2022-07-03T01:51:13;2.13;;;1.93;;
10894;SDS011;5500;49.886;8.074;2022-07-03T01:53:43;2.30;;;2.10;;
10894;SDS011;5500;49.886;8.074;2022-07-03T01:56:14;2.63;;;2.20;;
10894;SDS011;5500;49.886;8.074;2022-07-03T01:58:44;4.33;;;2.30;;
10894;SDS011;5500;49.886;8.074;2022-07-03T02:01:14;3.73;;;2.23;;
10894;SDS011;5500;49.886;8.074;2022-07-03T02:03:51;3.40;;;1.90;;
10894;SDS011;5500;49.886;8.074;2022-07-03T02:06:33;1.37;;;1.20;;
10894;SDS011;5500;49.886;8.074;2022-07-03T02:09:07;2.10;;;1.27;;
10894;SDS011;5500;49.886;8.074;2022-07-03T02:11:53;1.70;;;1.40;;
10894;SDS011;5500;49.886;8.074;2022-07-03T02:14:23;1.50;;;1.40;;
10894;SDS011;5500;49.886;8.074;2022-07-03T02:16:54;1.60;;;1.37;;
10894;SDS011;5500;49.886;8.074;2022-07-03T02:19:27;2.57;;;1.37;;
10894;SDS011;5500;49.886;8.074;2022-07-03T02:22:00;1.73;;;1.30;;
10894;SDS011;5500;49.886;8.074;2022-07-03T02:24:30;2.47;;;1.20;;
10894;SDS011;5500;49.886;8.074;2022-07-03T02:27:04;1.83;;;1.30;;
10894;SDS011;5500;49.886;8.074;2022-07-03T02:29:33;3.17;;;1.43;;
10894;SDS011;5500;49.886;8.074;2022-07-03T02:32:02;1.30;;;1.20;;
10894;SDS011;5500;49.886;8.074;2022-07-03T02:34:31;1.40;;;1.30;;
10894;SDS011;5500;49.886;8.074;2022-07-03T02:37:04;3.67;;;1.20;;
10894;SDS011;5500;49.886;8.074;2022-07-03T02:39:35;1.50;;;1.40;;
10894;SDS011;5500;49.886;8.074;2022-07-03T02:42:12;2.57;;;1.43;;
10894;SDS011;5500;49.886;8.074;2022-07-03T02:44:47;1.87;;;1.43;;
10894;SDS011;5500;49.886;8.074;2022-07-03T02:47:21;1.93;;;1.40;;
10894;SDS011;5500;49.886;8.074;2022-07-03T02:50:00;4.10;;;1.30;;
10894;SDS011;5500;49.886;8.074;2022-07-03T02:52:32;1.67;;;1.47;;
10894;SDS011;5500;49.886;8.074;2022-07-03T02:55:06;1.87;;;1.33;;
10894;SDS011;5500;49.886;8.074;2022-07-03T02:57:40;1.60;;;1.50;;
10894;SDS011;5500;49.886;8.074;2022-07-03T03:00:12;1.67;;;1.40;;
10894;SDS011;5500;49.886;8.074;2022-07-03T03:02:54;1.53;;;1.40;;
10894;SDS011;5500;49.886;8.074;2022-07-03T03:05:26;3.13;;;1.67;;
10894;SDS011;5500;49.886;8.074;2022-07-03T03:08:16;2.57;;;1.47;;
10894;SDS011;5500;49.886;8.074;2022-07-03T03:10:49;1.40;;;1.30;;
10894;SDS011;5500;49.886;8.074;2022-07-03T03:13:19;2.77;;;1.40;;
10894;SDS011;5500;49.886;8.074;2022-07-03T03:15:53;1.63;;;1.50;;
10894;SDS011;5500;49.886;8.074;2022-07-03T03:18:27;3.00;;;1.70;;
10894;SDS011;5500;49.886;8.074;2022-07-03T03:20:59;2.07;;;1.50;;
10894;SDS011;5500;49.886;8.074;2022-07-03T03:23:30;1.63;;;1.40;;
10894;SDS011;5500;49.886;8.074;2022-07-03T03:26:02;1.53;;;1.30;;
10894;SDS011;5500;49.886;8.074;2022-07-03T03:28:32;1.40;;;1.30;;
10894;SDS011;5500;49.886;8.074;2022-07-03T03:31:01;1.13;;;1.10;;
10894;SDS011;5500;49.886;8.074;2022-07-03T03:33:36;1.97;;;1.67;;
10894;SDS011;5500;49.886;8.074;2022-07-03T03:36:12;2.07;;;1.30;;
10894;SDS011;5500;49.886;8.074;2022-07-03T03:38:43;1.30;;;1.20;;
10894;SDS011;5500;49.886;8.074;2022-07-03T03:41:18;2.80;;;1.50;;
10894;SDS011;5500;49.886;8.074;2022-07-03T03:43:50;1.20;;;1.10;;
10894;SDS011;5500;49.886;8.074;2022-07-03T03:46:18;3.07;;;1.57;;
10894;SDS011;5500;49.886;8.074;2022-07-03T03:48:47;2.80;;;1.20;;
10894;SDS011;5500;49.886;8.074;2022-07-03T03:51:14;1.47;;;1.37;;
10894;SDS011;5500;49.886;8.074;2022-07-03T03:53:42;1.47;;;1.23;;
10894;SDS011;5500;49.886;8.074;2022-07-03T03:56:18;1.10;;;1.10;;
10894;SDS011;5500;49.886;8.074;2022-07-03T03:58:51;1.37;;;1.27;;
10894;SDS011;5500;49.886;8.074;2022-07-03T04:01:20;3.17;;;1.23;;
10894;SDS011;5500;49.886;8.074;2022-07-03T04:03:49;1.53;;;1.37;;
10894;SDS011;5500;49.886;8.074;2022-07-03T04:06:18;1.63;;;1.20;;
10894;SDS011;5500;49.886;8.074;2022-07-03T04:08:46;2.40;;;1.40;;
10894;SDS011;5500;49.886;8.074;2022-07-03T04:11:14;1.67;;;1.43;;
10894;SDS011;5500;49.886;8.074;2022-07-03T04:13:41;1.40;;;1.30;;
10894;SDS011;5500;49.886;8.074;2022-07-03T04:16:11;1.37;;;1.10;;
10894;SDS011;5500;49.886;8.074;2022-07-03T04:18:39;5.63;;;1.23;;
10894;SDS011;5500;49.886;8.074;2022-07-03T04:21:06;1.53;;;1.10;;
10894;SDS011;5500;49.886;8.074;2022-07-03T04:23:34;1.53;;;1.00;;
10894;SDS011;5500;49.886;8.074;2022-07-03T04:26:02;1.97;;;1.10;;
10894;SDS011;5500;49.886;8.074;2022-07-03T04:28:31;3.73;;;1.33;;
10894;SDS011;5500;49.886;8.074;2022-07-03T04:30:58;1.93;;;1.50;;
10894;SDS011;5500;49.886;8.074;2022-07-03T04:33:28;2.77;;;1.20;;
10894;SDS011;5500;49.886;8.074;2022-07-03T04:35:55;1.30;;;1.20;;
10894;SDS011;5500;49.886;8.074;2022-07-03T04:38:23;1.77;;;1.50;;
10894;SDS011;5500;49.886;8.074;2022-07-03T04:40:51;1.70;;;1.30;;
10894;SDS011;5500;49.886;8.074;2022-07-03T04:43:19;1.80;;;1.40;;
10894;SDS011;5500;49.886;8.074;2022-07-03T04:45:46;3.03;;;1.40;;
10894;SDS011;5500;49.886;8.074;2022-07-03T04:48:14;3.53;;;1.40;;
10894;SDS011;5500;49.886;8.074;2022-07-03T04:50:43;1.73;;;1.40;;
10894;SDS011;5500;49.886;8.074;2022-07-03T04:53:11;2.40;;;1.50;;
10894;SDS011;5500;49.886;8.074;2022-07-03T04:55:38;1.27;;;1.17;;
10894;SDS011;5500;49.886;8.074;2022-07-03T04:58:06;1.47;;;1.37;;
10894;SDS011;5500;49.886;8.074;2022-07-03T05:00:34;1.40;;;1.30;;
10894;SDS011;5500;49.886;8.074;2022-07-03T05:03:08;1.20;;;1.10;;
10894;SDS011;5500;49.886;8.074;2022-07-03T05:05:36;1.40;;;1.30;;
10894;SDS011;5500;49.886;8.074;2022-07-03T05:08:05;2.10;;;1.50;;
10894;SDS011;5500;49.886;8.074;2022-07-03T05:10:33;1.80;;;1.33;;
10894;SDS011;5500;49.886;8.074;2022-07-03T05:13:01;1.23;;;1.13;;
10894;SDS011;5500;49.886;8.074;2022-07-03T05:15:29;1.27;;;1.13;;
10894;SDS011;5500;49.886;8.074;2022-07-03T05:17:56;1.73;;;1.20;;
10894;SDS011;5500;49.886;8.074;2022-07-03T05:20:24;1.37;;;1.23;;
10894;SDS011;5500;49.886;8.074;2022-07-03T05:22:55;1.33;;;1.20;;
10894;SDS011;5500;49.886;8.074;2022-07-03T05:25:24;1.63;;;1.20;;
10894;SDS011;5500;49.886;8.074;2022-07-03T05:27:52;1.27;;;1.17;;
10894;SDS011;5500;49.886;8.074;2022-07-03T05:30:21;1.27;;;1.13;;
10894;SDS011;5500;49.886;8.074;2022-07-03T05:32:50;1.10;;;1.00;;
10894;SDS011;5500;49.886;8.074;2022-07-03T05:35:18;3.97;;;1.17;;
10894;SDS011;5500;49.886;8.074;2022-07-03T05:37:45;1.03;;;0.93;;
10894;SDS011;5500;49.886;8.074;2022-07-03T05:40:13;1.57;;;1.20;;
10894;SDS011;5500;49.886;8.074;2022-07-03T05:42:42;1.63;;;1.00;;
10894;SDS011;5500;49.886;8.074;2022-07-03T05:45:10;1.00;;;1.00;;
10894;SDS011;5500;49.886;8.074;2022-07-03T05:47:38;1.43;;;1.30;;
10894;SDS011;5500;49.886;8.074;2022-07-03T05:50:06;1.83;;;1.47;;
10894;SDS011;5500;49.886;8.074;2022-07-03T05:52:34;2.83;;;1.17;;
10894;SDS011;5500;49.886;8.074;2022-07-03T05:55:02;0.93;;;0.93;;
10894;SDS011;5500;49.886;8.074;2022-07-03T05:57:31;1.33;;;1.23;;
10894;SDS011;5500;49.886;8.074;2022-07-03T06:00:01;1.33;;;1.23;;
10894;SDS011;5500;49.886;8.074;2022-07-03T06:02:29;1.33;;;1.20;;
10894;SDS011;5500;49.886;8.074;2022-07-03T06:04:56;3.20;;;1.30;;
10894;SDS011;5500;49.886;8.074;2022-07-03T06:07:24;1.03;;;0.93;;
10894;SDS011;5500;49.886;8.074;2022-07-03T06:09:52;2.13;;;1.30;;
10894;SDS011;5500;49.886;8.074;2022-07-03T06:12:20;1.73;;;1.03;;
10894;SDS011;5500;49.886;8.074;2022-07-03T06:14:47;3.57;;;1.10;;
10894;SDS011;5500;49.886;8.074;2022-07-03T06:17:16;1.07;;;1.03;;
10894;SDS011;5500;49.886;8.074;2022-07-03T06:19:44;1.50;;;1.30;;
10894;SDS011;5500;49.886;8.074;2022-07-03T06:22:12;1.30;;;1.20;;
10894;SDS011;5500;49.886;8.074;2022-07-03T06:24:40;1.30;;;1.17;;
10894;SDS011;5500;49.886;8.074;2022-07-03T06:27:07;1.37;;;1.00;;
10894;SDS011;5500;49.886;8.074;2022-07-03T06:29:35;0.97;;;0.97;;
10894;SDS011;5500;49.886;8.074;2022-07-03T06:32:03;1.23;;;1.10;;
10894;SDS011;5500;49.886;8.074;2022-07-03T06:34:33;1.40;;;1.10;;
10894;SDS011;5500;49.886;8.074;2022-07-03T06:37:00;1.23;;;1.10;;
10894;SDS011;5500;49.886;8.074;2022-07-03T06:39:28;1.67;;;1.23;;
10894;SDS011;5500;49.886;8.074;2022-07-03T06:41:56;1.50;;;1.20;;
10894;SDS011;5500;49.886;8.074;2022-07-03T06:44:24;1.47;;;1.30;;
10894;SDS011;5500;49.886;8.074;2022-07-03T06:46:51;1.30;;;1.20;;
10894;SDS011;5500;49.886;8.074;2022-07-03T06:49:19;3.83;;;1.40;;
10894;SDS011;5500;49.886;8.074;2022-07-03T06:51:48;1.57;;;1.10;;
10894;SDS011;5500;49.886;8.074;2022-07-03T06:54:16;1.40;;;1.10;;
10894;SDS011;5500;49.886;8.074;2022-07-03T06:56:44;2.03;;;1.20;;
10894;SDS011;5500;49.886;8.074;2022-07-03T06:59:11;2.77;;;1.40;;
10894;SDS011;5500;49.886;8.074;2022-07-03T07:01:39;1.40;;;1.00;;
10894;SDS011;5500;49.886;8.074;2022-07-03T07:04:07;1.33;;;1.03;;
10894;SDS011;5500;49.886;8.074;2022-07-03T07:06:35;1.40;;;1.20;;
10894;SDS011;5500;49.886;8.074;2022-07-03T07:09:04;1.30;;;1.20;;
10894;SDS011;5500;49.886;8.074;2022-07-03T07:11:32;1.60;;;1.30;;
10894;SDS011;5500;49.886;8.074;2022-07-03T07:14:00;1.40;;;1.30;;
10894;SDS011;5500;49.886;8.074;2022-07-03T07:16:27;1.40;;;1.30;;
10894;SDS011;5500;49.886;8.074;2022-07-03T07:18:55;1.13;;;1.00;;
10894;SDS011;5500;49.886;8.074;2022-07-03T07:21:23;1.50;;;1.30;;
10894;SDS011;5500;49.886;8.074;2022-07-03T07:23:51;3.07;;;1.20;;
10894;SDS011;5500;49.886;8.074;2022-07-03T07:26:20;1.20;;;1.10;;
10894;SDS011;5500;49.886;8.074;2022-07-03T07:28:48;2.80;;;1.23;;
10894;SDS011;5500;49.886;8.074;2022-07-03T07:31:15;1.33;;;1.00;;
10894;SDS011;5500;49.886;8.074;2022-07-03T07:33:43;1.30;;;1.20;;
10894;SDS011;5500;49.886;8.074;2022-07-03T07:36:11;1.80;;;1.20;;
10894;SDS011;5500;49.886;8.074;2022-07-03T07:38:39;1.43;;;1.33;;
10894;SDS011;5500;49.886;8.074;2022-07-03T07:41:06;1.30;;;1.20;;
10894;SDS011;5500;49.886;8.074;2022-07-03T07:43:35;1.33;;;1.17;;
10894;SDS011;5500;49.886;8.074;2022-07-03T07:46:03;2.80;;;1.20;;
10894;SDS011;5500;49.886;8.074;2022-07-03T07:48:32;1.40;;;1.30;;
10894;SDS011;5500;49.886;8.074;2022-07-03T07:51:01;2.77;;;1.30;;
10894;SDS011;5500;49.886;8.074;2022-07-03T07:53:29;1.07;;;1.00;;
10894;SDS011;5500;49.886;8.074;2022-07-03T07:55:56;1.30;;;1.20;;
10894;SDS011;5500;49.886;8.074;2022-07-03T07:58:24;1.97;;;1.20;;
10894;SDS011;5500;49.886;8.074;2022-07-03T08:00:53;1.20;;;1.10;;
10894;SDS011;5500;49.886;8.074;2022-07-03T08:03:39;1.43;;;1.30;;
10894;SDS011;5500;49.886;8.074;2022-07-03T08:06:24;1.43;;;1.23;;
10894;SDS011;5500;49.886;8.074;2022-07-03T08:08:52;1.23;;;1.10;;
10894;SDS011;5500;49.886;8.074;2022-07-03T08:11:19;1.47;;;1.20;;
10894;SDS011;5500;49.886;8.074;2022-07-03T08:13:47;3.10;;;0.90;;
10894;SDS011;5500;49.886;8.074;2022-07-03T08:16:16;1.40;;;1.30;;
10894;SDS011;5500;49.886;8.074;2022-07-03T08:18:44;1.83;;;1.30;;
10894;SDS011;5500;49.886;8.074;2022-07-03T08:21:12;1.10;;;1.00;;
10894;SDS011;5500;49.886;8.074;2022-07-03T08:23:40;2.87;;;1.20;;
10894;SDS011;5500;49.886;8.074;2022-07-03T08:26:07;1.23;;;1.10;;
10894;SDS011;5500;49.886;8.074;2022-07-03T08:28:35;1.33;;;1.00;;
10894;SDS011;5500;49.886;8.074;2022-07-03T08:31:03;2.07;;;1.20;;
10894;SDS011;5500;49.886;8.074;2022-07-03T08:33:32;3.00;;;1.10;;
10894;SDS011;5500;49.886;8.074;2022-07-03T08:36:04;1.53;;;1.03;;
10894;SDS011;5500;49.886;8.074;2022-07-03T08:38:32;1.50;;;1.00;;
10894;SDS011;5500;49.886;8.074;2022-07-03T08:41:01;1.90;;;1.10;;
10894;SDS011;5500;49.886;8.074;2022-07-03T08:43:30;2.53;;;0.97;;
10894;SDS011;5500;49.886;8.074;2022-07-03T08:45:58;1.83;;;0.80;;
10894;SDS011;5500;49.886;8.074;2022-07-03T08:48:27;1.20;;;1.10;;
10894;SDS011;5500;49.886;8.074;2022-07-03T08:50:57;1.10;;;1.00;;
10894;SDS011;5500;49.886;8.074;2022-07-03T08:53:26;1.00;;;0.90;;
10894;SDS011;5500;49.886;8.074;2022-07-03T08:55:54;1.73;;;0.70;;
10894;SDS011;5500;49.886;8.074;2022-07-03T08:58:22;1.53;;;1.00;;
10894;SDS011;5500;49.886;8.074;2022-07-03T09:00:50;1.97;;;0.90;;
10894;SDS011;5500;49.886;8.074;2022-07-03T09:03:19;4.23;;;1.43;;
10894;SDS011;5500;49.886;8.074;2022-07-03T09:05:47;2.03;;;1.00;;
10894;SDS011;5500;49.886;8.074;2022-07-03T09:08:16;3.38;;;1.00;;
10894;SDS011;5500;49.886;8.074;2022-07-03T09:10:45;0.90;;;0.88;;
10894;SDS011;5500;49.886;8.074;2022-07-03T09:13:13;2.33;;;0.95;;
10894;SDS011;5500;49.886;8.074;2022-07-03T09:15:40;1.38;;;1.00;;
10894;SDS011;5500;49.886;8.074;2022-07-03T09:18:10;2.50;;;1.00;;
10894;SDS011;5500;49.886;8.074;2022-07-03T09:20:38;3.03;;;1.10;;
10894;SDS011;5500;49.886;8.074;2022-07-03T09:23:08;1.50;;;1.00;;
10894;SDS011;5500;49.886;8.074;2022-07-03T09:25:54;0.70;;;0.70;;
10894;SDS011;5500;49.886;8.074;2022-07-03T09:28:23;2.03;;;0.82;;
10894;SDS011;5500;49.886;8.074;2022-07-03T09:30:58;1.33;;;0.77;;
10894;SDS011;5500;49.886;8.074;2022-07-03T09:33:26;0.95;;;0.85;;
10894;SDS011;5500;49.886;8.074;2022-07-03T09:35:54;0.90;;;0.80;;
10894;SDS011;5500;49.886;8.074;2022-07-03T09:38:23;0.88;;;0.77;;
10894;SDS011;5500;49.886;8.074;2022-07-03T09:40:51;1.08;;;0.98;;
10894;SDS011;5500;49.886;8.074;2022-07-03T09:43:23;2.58;;;0.80;;
10894;SDS011;5500;49.886;8.074;2022-07-03T09:45:54;1.38;;;0.80;;
10894;SDS011;5500;49.886;8.074;2022-07-03T09:48:23;1.90;;;1.23;;
10894;SDS011;5500;49.886;8.074;2022-07-03T09:51:08;1.00;;;0.82;;
10894;SDS011;5500;49.886;8.074;2022-07-03T09:53:53;2.83;;;0.80;;
10894;SDS011;5500;49.886;8.074;2022-07-03T09:56:26;1.85;;;0.90;;
10894;SDS011;5500;49.886;8.074;2022-07-03T09:59:01;1.15;;;0.80;;
10894;SDS011;5500;49.886;8.074;2022-07-03T10:01:34;1.00;;;0.80;;
10894;SDS011;5500;49.886;8.074;2022-07-03T10:04:13;0.80;;;0.80;;
10894;SDS011;5500;49.886;8.074;2022-07-03T10:06:51;2.60;;;0.88;;
10894;SDS011;5500;49.886;8.074;2022-07-03T10:09:22;5.63;;;1.00;;
10894;SDS011;5500;49.886;8.074;2022-07-03T10:11:53;1.27;;;0.93;;
10894;SDS011;5500;49.886;8.074;2022-07-03T10:14:22;1.85;;;1.17;;
10894;SDS011;5500;49.886;8.074;2022-07-03T10:16:50;0.88;;;0.77;;
10894;SDS011;5500;49.886;8.074;2022-07-03T10:19:19;1.17;;;0.70;;
10894;SDS011;5500;49.886;8.074;2022-07-03T10:21:49;1.38;;;0.82;;
10894;SDS011;5500;49.886;8.074;2022-07-03T10:24:21;6.55;;;1.02;;
10894;SDS011;5500;49.886;8.074;2022-07-03T10:26:51;3.33;;;0.90;;
10894;SDS011;5500;49.886;8.074;2022-07-03T10:29:21;2.25;;;1.00;;
10894;SDS011;5500;49.886;8.074;2022-07-03T10:31:55;2.25;;;0.80;;
10894;SDS011;5500;49.886;8.074;2022-07-03T10:34:24;2.65;;;1.13;;
10894;SDS011;5500;49.886;8.074;2022-07-03T10:36:57;3.08;;;1.02;;
10894;SDS011;5500;49.886;8.074;2022-07-03T10:39:29;1.30;;;0.75;;
10894;SDS011;5500;49.886;8.074;2022-07-03T10:42:13;1.02;;;0.90;;
10894;SDS011;5500;49.886;8.074;2022-07-03T10:45:07;2.08;;;1.00;;
10894;SDS011;5500;49.886;8.074;2022-07-03T10:47:36;1.05;;;0.77;;
10894;SDS011;5500;49.886;8.074;2022-07-03T10:50:07;2.47;;;1.10;;
10894;SDS011;5500;49.886;8.074;2022-07-03T10:52:35;0.93;;;0.82;;
10894;SDS011;5500;49.886;8.074;2022-07-03T10:55:03;6.50;;;0.82;;
10894;SDS011;5500;49.886;8.074;2022-07-03T10:57:34;1.15;;;0.98;;
10894;SDS011;5500;49.886;8.074;2022-07-03T11:00:07;3.50;;;0.82;;
10894;SDS011;5500;49.886;8.074;2022-07-03T11:02:40;1.70;;;1.05;;
10894;SDS011;5500;49.886;8.074;2022-07-03T11:05:10;1.65;;;0.90;;
10894;SDS011;5500;49.886;8.074;2022-07-03T11:07:44;1.65;;;0.82;;
10894;SDS011;5500;49.886;8.074;2022-07-03T11:10:31;2.30;;;1.20;;
10894;SDS011;5500;49.886;8.074;2022-07-03T11:13:03;2.92;;;1.00;;
10894;SDS011;5500;49.886;8.074;2022-07-03T11:15:33;3.10;;;0.82;;
10894;SDS011;5500;49.886;8.074;2022-07-03T11:18:18;2.30;;;0.98;;
10894;SDS011;5500;49.886;8.074;2022-07-03T11:21:07;2.70;;;1.10;;
10894;SDS011;5500;49.886;8.074;2022-07-03T11:29:55;2.05;;;0.85;;
10894;SDS011;5500;49.886;8.074;2022-07-03T11:32:46;1.33;;;0.80;;
10894;SDS011;5500;49.886;8.074;2022-07-03T11:38:22;1.67;;;0.90;;
10894;SDS011;5500;49.886;8.074;2022-07-03T11:40:52;1.15;;;0.82;;
10894;SDS011;5500;49.886;8.074;2022-07-03T11:43:20;2.42;;;0.82;;
10894;SDS011;5500;49.886;8.074;2022-07-03T11:45:50;1.85;;;1.10;;
10894;SDS011;5500;49.886;8.074;2022-07-03T11:48:19;1.17;;;0.80;;
10894;SDS011;5500;49.886;8.074;2022-07-03T11:50:48;1.48;;;1.00;;
10894;SDS011;5500;49.886;8.074;2022-07-03T11:53:17;1.95;;;0.98;;
10894;SDS011;5500;49.886;8.074;2022-07-03T11:55:51;1.15;;;1.05;;
10894;SDS011;5500;49.886;8.074;2022-07-03T11:58:20;2.55;;;0.90;;
10894;SDS011;5500;49.886;8.074;2022-07-03T12:00:50;1.23;;;0.90;;
10894;SDS011;5500;49.886;8.074;2022-07-03T12:03:23;0.80;;;0.80;;
10894;SDS011;5500;49.886;8.074;2022-07-03T12:05:53;1.27;;;1.05;;
10894;SDS011;5500;49.886;8.074;2022-07-03T12:08:26;0.60;;;0.60;;
10894;SDS011;5500;49.886;8.074;2022-07-03T12:10:57;1.50;;;1.10;;
10894;SDS011;5500;49.886;8.074;2022-07-03T12:13:29;0.73;;;0.73;;
10894;SDS011;5500;49.886;8.074;2022-07-03T12:16:06;2.25;;;1.15;;
10894;SDS011;5500;49.886;8.074;2022-07-03T12:18:48;2.00;;;0.93;;
10894;SDS011;5500;49.886;8.074;2022-07-03T12:21:18;1.65;;;0.95;;
10894;SDS011;5500;49.886;8.074;2022-07-03T12:23:48;1.17;;;0.90;;
10894;SDS011;5500;49.886;8.074;2022-07-03T12:26:27;2.88;;;1.13;;
10894;SDS011;5500;49.886;8.074;2022-07-03T12:28:56;1.15;;;0.85;;
10894;SDS011;5500;49.886;8.074;2022-07-03T12:31:26;1.20;;;0.80;;
10894;SDS011;5500;49.886;8.074;2022-07-03T12:33:55;1.27;;;1.02;;
10894;SDS011;5500;49.886;8.074;2022-07-03T12:36:24;2.03;;;0.82;;
10894;SDS011;5500;49.886;8.074;2022-07-03T12:38:53;2.25;;;1.30;;
10894;SDS011;5500;49.886;8.074;2022-07-03T12:41:21;1.00;;;0.90;;
10894;SDS011;5500;49.886;8.074;2022-07-03T12:43:50;1.25;;;0.93;;
10894;SDS011;5500;49.886;8.074;2022-07-03T12:46:20;1.17;;;0.98;;
10894;SDS011;5500;49.886;8.074;2022-07-03T12:48:50;2.03;;;1.00;;
10894;SDS011;5500;49.886;8.074;2022-07-03T12:51:38;1.35;;;0.95;;
10894;SDS011;5500;49.886;8.074;2022-07-03T12:54:08;3.45;;;0.80;;
10894;SDS011;5500;49.886;8.074;2022-07-03T12:56:36;1.45;;;0.80;;
10894;SDS011;5500;49.886;8.074;2022-07-03T12:59:05;0.95;;;0.80;;
10894;SDS011;5500;49.886;8.074;2022-07-03T13:01:44;2.45;;;1.05;;
10894;SDS011;5500;49.886;8.074;2022-07-03T13:04:14;0.73;;;0.73;;
10894;SDS011;5500;49.886;8.074;2022-07-03T13:07:01;2.28;;;0.90;;
10894;SDS011;5500;49.886;8.074;2022-07-03T13:09:30;0.70;;;0.70;;
10894;SDS011;5500;49.886;8.074;2022-07-03T13:11:59;1.52;;;1.00;;
10894;SDS011;5500;49.886;8.074;2022-07-03T13:14:27;1.55;;;0.93;;
10894;SDS011;5500;49.886;8.074;2022-07-03T13:16:56;1.15;;;1.00;;
10894;SDS011;5500;49.886;8.074;2022-07-03T13:19:27;2.72;;;1.00;;
10894;SDS011;5500;49.886;8.074;2022-07-03T13:21:56;2.05;;;0.95;;
10894;SDS011;5500;49.886;8.074;2022-07-03T13:24:25;1.38;;;0.88;;
10894;SDS011;5500;49.886;8.074;2022-07-03T13:26:53;0.75;;;0.75;;
10894;SDS011;5500;49.886;8.074;2022-07-03T13:29:21;0.65;;;0.65;;
10894;SDS011;5500;49.886;8.074;2022-07-03T13:31:51;1.38;;;0.93;;
10894;SDS011;5500;49.886;8.074;2022-07-03T13:34:19;4.45;;;1.17;;
10894;SDS011;5500;49.886;8.074;2022-07-03T13:36:49;1.58;;;0.90;;
10894;SDS011;5500;49.886;8.074;2022-07-03T13:39:17;1.98;;;1.10;;
10894;SDS011;5500;49.886;8.074;2022-07-03T13:41:45;0.90;;;0.90;;
10894;SDS011;5500;49.886;8.074;2022-07-03T13:44:12;3.28;;;1.20;;
10894;SDS011;5500;49.886;8.074;2022-07-03T13:46:40;1.75;;;1.00;;
10894;SDS011;5500;49.886;8.074;2022-07-03T13:49:15;3.15;;;1.10;;
10894;SDS011;5500;49.886;8.074;2022-07-03T13:51:43;1.52;;;1.00;;
10894;SDS011;5500;49.886;8.074;2022-07-03T13:54:13;0.93;;;0.93;;
10894;SDS011;5500;49.886;8.074;2022-07-03T13:56:41;3.28;;;1.30;;
10894;SDS011;5500;49.886;8.074;2022-07-03T13:59:09;1.17;;;1.05;;
10894;SDS011;5500;49.886;8.074;2022-07-03T14:01:38;1.55;;;0.90;;
10894;SDS011;5500;49.886;8.074;2022-07-03T14:04:06;1.20;;;0.82;;
10894;SDS011;5500;49.886;8.074;2022-07-03T14:06:34;1.30;;;0.95;;
10894;SDS011;5500;49.886;8.074;2022-07-03T14:09:04;3.75;;;1.10;;
10894;SDS011;5500;49.886;8.074;2022-07-03T14:11:33;2.28;;;0.98;;
10894;SDS011;5500;49.886;8.074;2022-07-03T14:14:01;3.05;;;1.10;;
10894;SDS011;5500;49.886;8.074;2022-07-03T14:16:30;0.98;;;0.77;;
10894;SDS011;5500;49.886;8.074;2022-07-03T14:18:58;3.15;;;0.98;;
10894;SDS011;5500;49.886;8.074;2022-07-03T14:21:26;0.75;;;0.75;;
10894;SDS011;5500;49.886;8.074;2022-07-03T14:23:54;1.42;;;1.05;;
10894;SDS011;5500;49.886;8.074;2022-07-03T14:26:22;1.20;;;1.00;;
10894;SDS011;5500;49.886;8.074;2022-07-03T14:29:05;1.88;;;0.90;;
10894;SDS011;5500;49.886;8.074;2022-07-03T14:31:51;1.00;;;0.80;;
10894;SDS011;5500;49.886;8.074;2022-07-03T14:34:37;0.80;;;0.73;;
10894;SDS011;5500;49.886;8.074;2022-07-03T14:37:06;1.73;;;1.10;;
10894;SDS011;5500;49.886;8.074;2022-07-03T14:39:34;1.20;;;1.10;;
10894;SDS011;5500;49.886;8.074;2022-07-03T14:42:02;1.05;;;0.75;;
10894;SDS011;5500;49.886;8.074;2022-07-03T14:44:32;2.20;;;1.20;;
10894;SDS011;5500;49.886;8.074;2022-07-03T14:47:00;1.48;;;0.90;;
10894;SDS011;5500;49.886;8.074;2022-07-03T14:49:29;1.60;;;1.02;;
10894;SDS011;5500;49.886;8.074;2022-07-03T14:51:59;0.80;;;0.80;;
10894;SDS011;5500;49.886;8.074;2022-07-03T14:54:28;3.97;;;1.20;;
10894;SDS011;5500;49.886;8.074;2022-07-03T14:56:58;0.63;;;0.63;;
10894;SDS011;5500;49.886;8.074;2022-07-03T14:59:28;0.82;;;0.82;;
10894;SDS011;5500;49.886;8.074;2022-07-03T15:02:07;1.13;;;0.90;;
10894;SDS011;5500;49.886;8.074;2022-07-03T15:04:44;1.48;;;1.10;;
10894;SDS011;5500;49.886;8.074;2022-07-03T15:07:21;3.00;;;0.85;;
10894;SDS011;5500;49.886;8.074;2022-07-03T15:09:52;1.67;;;1.00;;
10894;SDS011;5500;49.886;8.074;2022-07-03T15:12:26;0.93;;;0.93;;
10894;SDS011;5500;49.886;8.074;2022-07-03T15:14:59;1.35;;;0.82;;
10894;SDS011;5500;49.886;8.074;2022-07-03T15:17:27;2.72;;;0.90;;
10894;SDS011;5500;49.886;8.074;2022-07-03T15:19:55;1.45;;;1.00;;
10894;SDS011;5500;49.886;8.074;2022-07-03T15:22:24;2.15;;;0.90;;
10894;SDS011;5500;49.886;8.074;2022-07-03T15:24:53;0.73;;;0.73;;
10894;SDS011;5500;49.886;8.074;2022-07-03T15:27:21;1.45;;;1.00;;
10894;SDS011;5500;49.886;8.074;2022-07-03T15:29:49;0.80;;;0.80;;